CSN7025 ZSCN-ZGOW
Flight info
| Callsign | CSN7025 |
|---|---|
| Flight time | N/A |
| Altitude | 32101 |
| Route | OSONO W19 PLT TEBON V36 SAPUT |
| Aircraft | B738/M-SDE2E3FGHIRWXY/LB1 |
Departure
| Time | 2026-04-17 13:16 |
|---|---|
| Airport | Nanchang Changbei International Airport (ZSCN) |
Arrival
| Time | N/A |
|---|---|
| Airport | Jieyang Chaoshan International Airport (ZGOW) |
| Time | Latitude | Longitude | Altitude | Speed | Heading |
|---|---|---|---|---|---|
| 2026-04-17 12:38 | 28.86651 | 115.90939 | 152 ft | 0 kts | 87° |
| 2026-04-17 12:55 | 28.86652 | 115.90939 | 152 ft | 0 kts | 87° |
| 2026-04-17 12:55 | 28.86651 | 115.90926 | 152 ft | 1 kts | 87° |
| 2026-04-17 12:56 | 28.86650 | 115.90914 | 152 ft | 2 kts | 78° |
| 2026-04-17 12:56 | 28.86645 | 115.90898 | 152 ft | 2 kts | 59° |
| 2026-04-17 12:56 | 28.86636 | 115.90885 | 152 ft | 2 kts | 41° |
| 2026-04-17 12:56 | 28.86623 | 115.90875 | 152 ft | 2 kts | 24° |
| 2026-04-17 12:57 | 28.86609 | 115.90871 | 152 ft | 2 kts | 7° |
| 2026-04-17 12:57 | 28.86600 | 115.90870 | 152 ft | 1 kts | 357° |
| 2026-04-17 12:57 | 28.86595 | 115.90870 | 152 ft | 0 kts | 356° |
| 2026-04-17 13:04 | 28.86602 | 115.90870 | 152 ft | 3 kts | 356° |
| 2026-04-17 13:04 | 28.86653 | 115.90864 | 152 ft | 8 kts | 340° |
| 2026-04-17 13:05 | 28.86688 | 115.90813 | 152 ft | 8 kts | 295° |
| 2026-04-17 13:05 | 28.86713 | 115.90751 | 152 ft | 8 kts | 292° |
| 2026-04-17 13:05 | 28.86737 | 115.90685 | 152 ft | 9 kts | 293° |
| 2026-04-17 13:05 | 28.86752 | 115.90625 | 152 ft | 7 kts | 261° |
| 2026-04-17 13:06 | 28.86715 | 115.90586 | 152 ft | 7 kts | 205° |
| 2026-04-17 13:06 | 28.86665 | 115.90561 | 152 ft | 8 kts | 203° |
| 2026-04-17 13:06 | 28.86611 | 115.90535 | 152 ft | 8 kts | 203° |
| 2026-04-17 13:06 | 28.86555 | 115.90508 | 152 ft | 8 kts | 203° |
| 2026-04-17 13:07 | 28.86498 | 115.90480 | 152 ft | 9 kts | 204° |
| 2026-04-17 13:07 | 28.86438 | 115.90451 | 152 ft | 9 kts | 203° |
| 2026-04-17 13:07 | 28.86350 | 115.90408 | 152 ft | 19 kts | 203° |
| 2026-04-17 13:07 | 28.86208 | 115.90339 | 152 ft | 22 kts | 204° |
| 2026-04-17 13:08 | 28.86066 | 115.90270 | 152 ft | 22 kts | 203° |
| 2026-04-17 13:08 | 28.85922 | 115.90201 | 152 ft | 22 kts | 203° |
| 2026-04-17 13:08 | 28.85785 | 115.90135 | 152 ft | 19 kts | 204° |
| 2026-04-17 13:08 | 28.85671 | 115.90079 | 152 ft | 17 kts | 202° |
| 2026-04-17 13:09 | 28.85559 | 115.90025 | 152 ft | 17 kts | 204° |
| 2026-04-17 13:09 | 28.85444 | 115.89969 | 153 ft | 17 kts | 203° |
| 2026-04-17 13:09 | 28.85329 | 115.89913 | 152 ft | 18 kts | 203° |
| 2026-04-17 13:09 | 28.85211 | 115.89856 | 153 ft | 18 kts | 203° |
| 2026-04-17 13:10 | 28.85105 | 115.89804 | 153 ft | 13 kts | 203° |
| 2026-04-17 13:10 | 28.85056 | 115.89781 | 153 ft | 3 kts | 202° |
| 2026-04-17 13:10 | 28.85038 | 115.89768 | 153 ft | 3 kts | 227° |
| 2026-04-17 13:10 | 28.85033 | 115.89745 | 153 ft | 3 kts | 258° |
| 2026-04-17 13:11 | 28.85033 | 115.89716 | 153 ft | 3 kts | 280° |
| 2026-04-17 13:11 | 28.85039 | 115.89698 | 153 ft | 0 kts | 294° |
| 2026-04-17 13:14 | 28.85043 | 115.89689 | 153 ft | 4 kts | 294° |
| 2026-04-17 13:14 | 28.85061 | 115.89644 | 153 ft | 5 kts | 294° |
| 2026-04-17 13:14 | 28.85080 | 115.89601 | 153 ft | 6 kts | 309° |
| 2026-04-17 13:14 | 28.85119 | 115.89600 | 153 ft | 5 kts | 24° |
| 2026-04-17 13:15 | 28.85121 | 115.89601 | 153 ft | 0 kts | 24° |
| 2026-04-17 13:15 | 28.85188 | 115.89634 | 153 ft | 48 kts | 23° |
| 2026-04-17 13:15 | 28.85811 | 115.89935 | 153 ft | 143 kts | 23° |
| 2026-04-17 13:16 | 28.86876 | 115.90439 | 792 ft | 174 kts | 20° |
| 2026-04-17 13:16 | 28.87941 | 115.90866 | 2051 ft | 167 kts | 19° |
| 2026-04-17 13:16 | 28.89041 | 115.91316 | 2841 ft | 180 kts | 20° |
| 2026-04-17 13:16 | 28.90242 | 115.91833 | 3658 ft | 193 kts | 21° |
| 2026-04-17 13:17 | 28.91542 | 115.92402 | 4483 ft | 207 kts | 21° |
| 2026-04-17 13:17 | 28.92911 | 115.92998 | 5263 ft | 221 kts | 21° |
| 2026-04-17 13:17 | 28.94379 | 115.93641 | 6016 ft | 237 kts | 21° |
| 2026-04-17 13:17 | 28.95942 | 115.94338 | 6885 ft | 246 kts | 21° |
| 2026-04-17 13:18 | 28.97551 | 115.95052 | 7879 ft | 251 kts | 22° |
| 2026-04-17 13:18 | 28.99188 | 115.95781 | 8687 ft | 265 kts | 21° |
| 2026-04-17 13:18 | 29.00935 | 115.96561 | 9685 ft | 271 kts | 20° |
| 2026-04-17 13:18 | 29.02767 | 115.96983 | 10703 ft | 274 kts | 358° |
| 2026-04-17 13:19 | 29.04621 | 115.96472 | 11552 ft | 280 kts | 331° |
| 2026-04-17 13:19 | 29.06168 | 115.95184 | 12490 ft | 280 kts | 311° |
| 2026-04-17 13:19 | 29.07372 | 115.93442 | 13378 ft | 282 kts | 298° |
| 2026-04-17 13:19 | 29.08124 | 115.91370 | 13728 ft | 284 kts | 276° |
| 2026-04-17 13:20 | 29.08073 | 115.89182 | 13801 ft | 276 kts | 253° |
| 2026-04-17 13:20 | 29.07322 | 115.87193 | 13791 ft | 268 kts | 237° |
| 2026-04-17 13:20 | 29.06203 | 115.85513 | 13792 ft | 267 kts | 226° |
| 2026-04-17 13:20 | 29.04711 | 115.84276 | 13790 ft | 271 kts | 204° |
| 2026-04-17 13:21 | 29.02865 | 115.83830 | 13794 ft | 274 kts | 183° |
| 2026-04-17 13:21 | 29.00960 | 115.84085 | 13794 ft | 276 kts | 170° |
| 2026-04-17 13:21 | 28.99089 | 115.84639 | 13794 ft | 277 kts | 168° |
| 2026-04-17 13:21 | 28.97232 | 115.85216 | 13792 ft | 276 kts | 168° |
| 2026-04-17 13:22 | 28.95367 | 115.85781 | 13792 ft | 277 kts | 169° |
| 2026-04-17 13:22 | 28.93500 | 115.86343 | 13792 ft | 276 kts | 168° |
| 2026-04-17 13:22 | 28.91644 | 115.86900 | 13793 ft | 275 kts | 168° |
| 2026-04-17 13:22 | 28.89788 | 115.87457 | 13789 ft | 276 kts | 169° |
| 2026-04-17 13:23 | 28.87936 | 115.88013 | 13790 ft | 275 kts | 169° |
| 2026-04-17 13:23 | 28.86034 | 115.88451 | 13791 ft | 285 kts | 180° |
| 2026-04-17 13:23 | 28.83988 | 115.88152 | 13801 ft | 316 kts | 200° |
| 2026-04-17 13:23 | 28.81865 | 115.87080 | 13791 ft | 342 kts | 210° |
| 2026-04-17 13:24 | 28.79808 | 115.85711 | 13791 ft | 347 kts | 213° |
| 2026-04-17 13:24 | 28.77747 | 115.84240 | 13793 ft | 346 kts | 213° |
| 2026-04-17 13:24 | 28.75687 | 115.82773 | 13789 ft | 348 kts | 213° |
| 2026-04-17 13:24 | 28.73643 | 115.81350 | 13787 ft | 346 kts | 212° |
| 2026-04-17 13:25 | 28.71558 | 115.79929 | 13786 ft | 349 kts | 212° |
| 2026-04-17 13:25 | 28.69466 | 115.78526 | 13788 ft | 346 kts | 212° |
| 2026-04-17 13:25 | 28.67378 | 115.77138 | 13788 ft | 348 kts | 212° |
| 2026-04-17 13:25 | 28.65293 | 115.75758 | 13783 ft | 346 kts | 212° |
| 2026-04-17 13:26 | 28.63208 | 115.74377 | 13787 ft | 347 kts | 212° |
| 2026-04-17 13:26 | 28.61123 | 115.72998 | 13782 ft | 346 kts | 212° |
| 2026-04-17 13:26 | 28.59054 | 115.71630 | 13779 ft | 348 kts | 212° |
| 2026-04-17 13:26 | 28.56957 | 115.70244 | 13779 ft | 345 kts | 212° |
| 2026-04-17 13:27 | 28.54883 | 115.68872 | 13780 ft | 347 kts | 212° |
| 2026-04-17 13:27 | 28.52783 | 115.67483 | 13780 ft | 347 kts | 212° |
| 2026-04-17 13:27 | 28.50709 | 115.66110 | 13778 ft | 346 kts | 212° |
| 2026-04-17 13:27 | 28.48607 | 115.64718 | 13786 ft | 348 kts | 212° |
| 2026-04-17 13:28 | 28.46532 | 115.63344 | 13780 ft | 345 kts | 212° |
| 2026-04-17 13:28 | 28.44457 | 115.61972 | 13781 ft | 346 kts | 212° |
| 2026-04-17 13:28 | 28.42348 | 115.60580 | 13778 ft | 348 kts | 212° |
| 2026-04-17 13:28 | 28.40201 | 115.59342 | 13775 ft | 348 kts | 205° |
| 2026-04-17 13:29 | 28.37816 | 115.58705 | 13773 ft | 356 kts | 186° |
| 2026-04-17 13:29 | 28.35353 | 115.59010 | 13776 ft | 363 kts | 169° |
| 2026-04-17 13:29 | 28.32915 | 115.59868 | 13773 ft | 365 kts | 165° |
| 2026-04-17 13:29 | 28.30526 | 115.60789 | 13770 ft | 364 kts | 165° |
| 2026-04-17 13:30 | 28.28110 | 115.61720 | 13771 ft | 363 kts | 165° |
| 2026-04-17 13:30 | 28.25725 | 115.62624 | 13776 ft | 362 kts | 165° |
| 2026-04-17 13:30 | 28.23325 | 115.63517 | 13773 ft | 364 kts | 166° |
| 2026-04-17 13:30 | 28.20893 | 115.64410 | 13777 ft | 363 kts | 166° |
| 2026-04-17 13:31 | 28.18505 | 115.65279 | 13779 ft | 363 kts | 166° |
| 2026-04-17 13:31 | 28.16090 | 115.66155 | 13776 ft | 364 kts | 166° |
| 2026-04-17 13:31 | 28.13661 | 115.67036 | 13777 ft | 363 kts | 166° |
| 2026-04-17 13:31 | 28.11257 | 115.67908 | 13778 ft | 364 kts | 167° |
| 2026-04-17 13:32 | 28.08846 | 115.68782 | 13778 ft | 364 kts | 166° |
| 2026-04-17 13:32 | 28.06433 | 115.69658 | 13779 ft | 364 kts | 167° |
| 2026-04-17 13:32 | 28.04008 | 115.70536 | 13781 ft | 366 kts | 167° |
| 2026-04-17 13:32 | 28.02379 | 115.71126 | 13785 ft | 366 kts | 166° |